Back to Top

Language: 

My Weather Underground Personal Weather Station Historical Data with Graphs...

Delerius Weather Station Historical Data
Daily Summary for November 27, 2017 Units:  Metric    English   Both
« Previous Day
Next Day »
Daily Weekly Monthly Yearly Custom
  High: Low: Average:
Temperature: 9.5 °C 3.8 °C 6.6 °C
Dew Point: 8.3 °C 1.8 °C 4.4 °C
Humidity: 93 % 81 % 87 %
Wind Speed: 32.2 km/h 3.2 km/h 18 km/h
Wind Gust: 54.7 km/h - -
Wind:- - West
Pressure: 1013.4 hPa 1005.6 hPa -
Precipitation: 2.03 mm    
Historical Graphs
 
 
Tabular Data for November 27, 2017
Time Temperature Dew Point Pressure Wind Wind Speed Wind Gust Humidity Rainfall Rate (Hourly) solar Conditions
00:04 8.3 °C 6.6 °C 1013.4 hPa SW 20.9 km/h 32.2 km/h 89 % 0 mm 0 W/m2
00:14 8.3 °C 6.6 °C 1013.4 hPa SSW 14.5 km/h 20.9 km/h 89 % 0 mm 0 W/m2
00:19 8.2 °C 6.5 °C 1013.1 hPa SSW 19.3 km/h 32.2 km/h 89 % 0 mm 0 W/m2
00:24 8.1 °C 6.6 °C 1012.8 hPa SSW 20.9 km/h 33.8 km/h 90 % 0 mm 0 W/m2
00:29 8 °C 6.4 °C 1012.8 hPa SW 19.3 km/h 29 km/h 90 % 0 mm 0 W/m2
00:34 8 °C 6.4 °C 1012.8 hPa SW 17.7 km/h 24.1 km/h 90 % 0 mm 0 W/m2
00:39 8 °C 6.4 °C 1012.4 hPa SW 19.3 km/h 29 km/h 90 % 0 mm 0 W/m2
00:44 8 °C 6.6 °C 1012.4 hPa SW 17.7 km/h 25.7 km/h 91 % 0 mm 0 W/m2
00:49 8 °C 6.6 °C 1012.4 hPa SW 16.1 km/h 24.1 km/h 91 % 0 mm 0 W/m2
00:54 8 °C 6.6 °C 1012.1 hPa WSW 14.5 km/h 20.9 km/h 91 % 0 mm 0 W/m2
00:59 8.1 °C 6.7 °C 1012.1 hPa SW 17.7 km/h 24.1 km/h 91 % 0 mm 0 W/m2
01:04 8.2 °C 6.8 °C 1011.7 hPa SW 14.5 km/h 20.9 km/h 91 % 0.25 mm 0 W/m2
01:09 8.2 °C 6.8 °C 1011.7 hPa SW 14.5 km/h 22.5 km/h 91 % 0.25 mm 0 W/m2
01:14 8.2 °C 6.8 °C 1011.4 hPa SW 17.7 km/h 25.7 km/h 91 % 0.25 mm 0 W/m2
01:19 8.2 °C 6.8 °C 1011.4 hPa SW 14.5 km/h 29 km/h 91 % 0.25 mm 0 W/m2
01:24 8.3 °C 6.9 °C 1011.4 hPa SW 14.5 km/h 25.7 km/h 91 % 0.25 mm 0 W/m2
01:29 8.3 °C 7.1 °C 1011.1 hPa SW 14.5 km/h 20.9 km/h 92 % 0.51 mm 0 W/m2
01:34 8.4 °C 7.2 °C 1011.1 hPa SW 14.5 km/h 20.9 km/h 92 % 0.51 mm 0 W/m2
01:39 8.4 °C 7.2 °C 1011.1 hPa SW 12.9 km/h 24.1 km/h 92 % 0.51 mm 0 W/m2
01:44 8.5 °C 7.3 °C 1010.7 hPa SW 14.5 km/h 19.3 km/h 92 % 0.51 mm 0 W/m2
01:49 8.6 °C 7.6 °C 1010.7 hPa SW 16.1 km/h 25.7 km/h 93 % 0.51 mm 0 W/m2
01:54 8.8 °C 7.7 °C 1010.7 hPa WSW 17.7 km/h 37 km/h 93 % 0.51 mm 0 W/m2
01:59 9 °C 7.9 °C 1010.4 hPa WSW 17.7 km/h 22.5 km/h 93 % 0.51 mm 0 W/m2
02:04 9.2 °C 7.9 °C 1010.4 hPa WSW 19.3 km/h 30.6 km/h 92 % 0.25 mm 0 W/m2
02:09 9.3 °C 8.1 °C 1010 hPa WSW 20.9 km/h 32.2 km/h 92 % 0.51 mm 0 W/m2
02:14 9.4 °C 8.2 °C 1010 hPa WSW 16.1 km/h 25.7 km/h 92 % 0.51 mm 0 W/m2
02:19 9.4 °C 8.2 °C 1010 hPa WSW 22.5 km/h 33.8 km/h 92 % 0.51 mm 0 W/m2
02:24 9.4 °C 8.2 °C 1010 hPa West 22.5 km/h 40.2 km/h 92 % 0.51 mm 0 W/m2
02:29 9.5 °C 8.3 °C 1010 hPa WSW 20.9 km/h 35.4 km/h 92 % 0.25 mm 0 W/m2
02:34 9.4 °C 8.2 °C 1010 hPa WSW 25.7 km/h 38.6 km/h 92 % 0.25 mm 0 W/m2
02:39 9.4 °C 8.2 °C 1010 hPa West 16.1 km/h 29 km/h 92 % 0.25 mm 0 W/m2
02:44 9.3 °C 8.1 °C 1010 hPa West 16.1 km/h 32.2 km/h 92 % 0.25 mm 0 W/m2
02:49 9.2 °C 7.8 °C 1010 hPa West 27.4 km/h 38.6 km/h 91 % 0.25 mm 0 W/m2
02:54 9.1 °C 7.6 °C 1010 hPa West 20.9 km/h 35.4 km/h 90 % 0.25 mm 0 W/m2
02:59 9.1 °C 7.4 °C 1010 hPa West 24.1 km/h 35.4 km/h 89 % 0.25 mm 0 W/m2
03:05 9.1 °C 7.2 °C 1010 hPa West 20.9 km/h 37 km/h 88 % 0.25 mm 0 W/m2
03:10 9.2 °C 7.3 °C 1010 hPa West 22.5 km/h 43.5 km/h 88 % 0 mm 0 W/m2
03:15 9.1 °C 7.2 °C 1010 hPa West 16.1 km/h 29 km/h 88 % 0 mm 0 W/m2
03:20 9.1 °C 7.1 °C 1010 hPa WNW 19.3 km/h 33.8 km/h 87 % 0 mm 0 W/m2
03:21 9 °C 6.9 °C 1010 hPa WNW 17.7 km/h 29 km/h 87 % 0 mm 0 W/m2
03:26 9 °C 6.9 °C 1010 hPa West 17.7 km/h 29 km/h 87 % 0 mm 0 W/m2
03:31 9 °C 6.9 °C 1010 hPa West 19.3 km/h 30.6 km/h 87 % 0 mm 0 W/m2
03:36 9 °C 6.9 °C 1009.7 hPa West 14.5 km/h 25.7 km/h 87 % 0 mm 0 W/m2
03:41 8.9 °C 6.8 °C 1010 hPa WNW 14.5 km/h 30.6 km/h 87 % 0 mm 0 W/m2
03:46 9 °C 6.9 °C 1009.7 hPa West 19.3 km/h 33.8 km/h 87 % 0 mm 0 W/m2
03:51 8.9 °C 6.8 °C 1009.7 hPa West 16.1 km/h 25.7 km/h 87 % 0 mm 0 W/m2
03:56 8.9 °C 6.8 °C 1009.7 hPa West 14.5 km/h 24.1 km/h 87 % 0 mm 0 W/m2
04:01 8.9 °C 6.8 °C 1009.7 hPa West 14.5 km/h 24.1 km/h 87 % 0 mm 0 W/m2
04:06 8.9 °C 6.8 °C 1009.7 hPa West 17.7 km/h 30.6 km/h 87 % 0 mm 0 W/m2
04:11 8.9 °C 6.8 °C 1009.4 hPa West 16.1 km/h 24.1 km/h 87 % 0 mm 0 W/m2
04:16 8.9 °C 6.8 °C 1009.4 hPa West 16.1 km/h 30.6 km/h 87 % 0 mm 0 W/m2
04:21 8.9 °C 6.8 °C 1009.4 hPa West 17.7 km/h 30.6 km/h 87 % 0 mm 0 W/m2
04:26 8.9 °C 6.7 °C 1009.4 hPa West 19.3 km/h 33.8 km/h 86 % 0 mm 0 W/m2
04:31 9 °C 6.8 °C 1009.4 hPa West 20.9 km/h 38.6 km/h 86 % 0 mm 0 W/m2
04:36 8.9 °C 6.7 °C 1009.4 hPa West 14.5 km/h 22.5 km/h 86 % 0 mm 0 W/m2
04:41 8.9 °C 6.7 °C 1009.4 hPa West 24.1 km/h 37 km/h 86 % 0 mm 0 W/m2
04:46 8.9 °C 6.7 °C 1009.4 hPa West 19.3 km/h 30.6 km/h 86 % 0 mm 0 W/m2
04:51 8.9 °C 6.7 °C 1009.4 hPa West 20.9 km/h 37 km/h 86 % 0 mm 0 W/m2
04:56 8.8 °C 6.6 °C 1009.4 hPa West 19.3 km/h 30.6 km/h 86 % 0 mm 0 W/m2
05:01 8.8 °C 6.6 °C 1009.4 hPa West 24.1 km/h 37 km/h 86 % 0 mm 0 W/m2
05:06 8.8 °C 6.6 °C 1009.4 hPa WNW 19.3 km/h 32.2 km/h 86 % 0 mm 0 W/m2
05:11 8.6 °C 6.6 °C 1009.4 hPa NW 14.5 km/h 24.1 km/h 87 % 0.25 mm 0 W/m2
05:16 8.3 °C 6.4 °C 1009.4 hPa WNW 12.9 km/h 19.3 km/h 88 % 0.25 mm 0 W/m2
05:21 8.1 °C 6.4 °C 1009.4 hPa WNW 12.9 km/h 19.3 km/h 89 % 0.51 mm 0 W/m2
05:22 8.1 °C 6.4 °C 1009.4 hPa WNW 12.9 km/h 19.3 km/h 89 % 0.51 mm 0 W/m2
05:27 7.9 °C 6.2 °C 1009.4 hPa WNW 14.5 km/h 25.7 km/h 89 % 0.51 mm 0 W/m2
05:32 7.8 °C 6.3 °C 1009.4 hPa WNW 12.9 km/h 20.9 km/h 90 % 0.51 mm 0 W/m2
05:37 7.7 °C 6.2 °C 1009.4 hPa WNW 6.4 km/h 12.9 km/h 90 % 0.51 mm 0 W/m2
05:42 7.6 °C 6.1 °C 1009.4 hPa West 4.8 km/h 9.7 km/h 90 % 0.51 mm 0 W/m2
05:47 7.5 °C 5.9 °C 1009.4 hPa West 3.2 km/h 8 km/h 90 % 0.51 mm 0 W/m2
05:52 7.4 °C 6 °C 1009.4 hPa WSW 8 km/h 16.1 km/h 91 % 0.51 mm 0 W/m2
05:57 7.4 °C 6 °C 1009.4 hPa WNW 12.9 km/h 20.9 km/h 91 % 0.51 mm 0 W/m2
06:02 7.4 °C 6 °C 1009.4 hPa WNW 11.3 km/h 20.9 km/h 91 % 0.51 mm 0 W/m2
06:12 7.3 °C 5.8 °C 1009.4 hPa WNW 11.3 km/h 16.1 km/h 90 % 0.25 mm 0 W/m2
06:17 7.2 °C 5.5 °C 1009.4 hPa West 11.3 km/h 19.3 km/h 89 % 0.25 mm 0 W/m2
06:22 7.2 °C 5.5 °C 1009.4 hPa West 11.3 km/h 17.7 km/h 89 % 0 mm 0 W/m2
06:27 7.3 °C 5.6 °C 1009.4 hPa West 14.5 km/h 22.5 km/h 89 % 0 mm 0 W/m2
06:32 7.3 °C 5.4 °C 1009.4 hPa WNW 12.9 km/h 16.1 km/h 88 % 0 mm 0 W/m2
06:37 7.3 °C 5.4 °C 1009.4 hPa WNW 14.5 km/h 20.9 km/h 88 % 0 mm 0 W/m2
06:42 7.4 °C 5.6 °C 1009.4 hPa West 8 km/h 16.1 km/h 88 % 0 mm 0 W/m2
06:47 7.4 °C 5.6 °C 1009.4 hPa West 11.3 km/h 16.1 km/h 88 % 0 mm 0 W/m2
06:52 7.4 °C 5.6 °C 1009.4 hPa WNW 9.7 km/h 19.3 km/h 88 % 0 mm 0 W/m2
07:00 7.5 °C 5.7 °C 1009.4 hPa West 9.7 km/h 17.7 km/h 88 % 0 mm 0 W/m2
07:05 7.5 °C 5.7 °C 1009.4 hPa West 11.3 km/h 17.7 km/h 88 % 0 mm 0 W/m2
07:10 7.5 °C 5.7 °C 1009.4 hPa WNW 11.3 km/h 17.7 km/h 88 % 0 mm 0 W/m2
07:15 7.6 °C 5.6 °C 1009.4 hPa West 9.7 km/h 16.1 km/h 87 % 0 mm 0 W/m2
07:20 7.6 °C 5.7 °C 1009.4 hPa West 14.5 km/h 22.5 km/h 88 % 0 mm 0 W/m2
07:25 7.6 °C 5.7 °C 1009.4 hPa WNW 8 km/h 12.9 km/h 88 % 0 mm 0 W/m2
07:30 7.5 °C 5.8 °C 1009.4 hPa WNW 8 km/h 16.1 km/h 89 % 0 mm 0 W/m2
07:35 7.5 °C 5.8 °C 1009 hPa WNW 9.7 km/h 14.5 km/h 89 % 0 mm 0 W/m2
07:40 7.4 °C 5.7 °C 1009 hPa West 9.7 km/h 16.1 km/h 89 % 0 mm 0 W/m2
07:45 7.4 °C 5.9 °C 1009 hPa West 9.7 km/h 14.5 km/h 90 % 0 mm 0 W/m2
07:50 7.4 °C 5.7 °C 1009 hPa WNW 12.9 km/h 20.9 km/h 89 % 0 mm 0 W/m2
07:55 7.4 °C 5.9 °C 1009 hPa NW 11.3 km/h 17.7 km/h 90 % 0 mm 0 W/m2
08:00 7.4 °C 5.9 °C 1009.4 hPa NW 11.3 km/h 22.5 km/h 90 % 0.51 mm 0 W/m2
08:05 7.3 °C 5.8 °C 1009.4 hPa WNW 11.3 km/h 19.3 km/h 90 % 0.51 mm 0 W/m2
08:10 7.2 °C 5.7 °C 1009.4 hPa WNW 14.5 km/h 37 km/h 90 % 0.51 mm 0 W/m2
08:15 6.9 °C 5.4 °C 1009.4 hPa WNW 20.9 km/h 30.6 km/h 90 % 0.51 mm 0 W/m2
08:20 6.6 °C 4.9 °C 1009.4 hPa West 22.5 km/h 37 km/h 89 % 0.76 mm 5 W/m2
08:25 6.3 °C 4.4 °C 1009.4 hPa West 19.3 km/h 33.8 km/h 88 % 0.76 mm 9 W/m2
08:31 6.2 °C 4.5 °C 1009.4 hPa West 20.9 km/h 30.6 km/h 89 % 0.76 mm 12 W/m2
08:36 6.2 °C 4.3 °C 1009 hPa West 17.7 km/h 33.8 km/h 88 % 0.76 mm 14 W/m2
08:41 6.1 °C 4.3 °C 1009 hPa WNW 14.5 km/h 25.7 km/h 88 % 0.76 mm 21 W/m2
08:46 6.2 °C 4.3 °C 1009 hPa WNW 17.7 km/h 30.6 km/h 88 % 0.76 mm 32 W/m2
08:51 6.2 °C 4.3 °C 1009 hPa West 12.9 km/h 22.5 km/h 88 % 0.76 mm 37 W/m2
08:56 6.3 °C 4.4 °C 1009 hPa West 16.1 km/h 24.1 km/h 88 % 0.76 mm 39 W/m2
09:01 6.4 °C 4.6 °C 1008.7 hPa WNW 17.7 km/h 29 km/h 88 % 0.25 mm 47 W/m2
09:06 6.4 °C 4.6 °C 1008.7 hPa WNW 12.9 km/h 20.9 km/h 88 % 0.25 mm 51 W/m2
09:11 6.5 °C 4.8 °C 1008.7 hPa West 8 km/h 12.9 km/h 89 % 0.25 mm 44 W/m2
09:16 6.5 °C 4.8 °C 1008.7 hPa West 9.7 km/h 16.1 km/h 89 % 0.25 mm 63 W/m2
09:21 6.6 °C 4.9 °C 1008.7 hPa West 4.8 km/h 9.7 km/h 89 % 0 mm 40 W/m2
09:26 6.6 °C 4.9 °C 1008.7 hPa WSW 8 km/h 16.1 km/h 89 % 0 mm 54 W/m2
09:31 6.6 °C 4.9 °C 1008.4 hPa West 6.4 km/h 14.5 km/h 89 % 0 mm 40 W/m2
09:36 6.7 °C 5.2 °C 1008.4 hPa West 9.7 km/h 17.7 km/h 90 % 0 mm 32 W/m2
09:41 6.9 °C 5.2 °C 1008.4 hPa West 12.9 km/h 22.5 km/h 89 % 0 mm 65 W/m2
09:46 7.1 °C 5.2 °C 1008.4 hPa West 16.1 km/h 25.7 km/h 88 % 0 mm 56 W/m2
09:51 7.2 °C 5.2 °C 1008.4 hPa West 12.9 km/h 24.1 km/h 87 % 0 mm 67 W/m2
09:56 7.3 °C 5.3 °C 1008.4 hPa WNW 16.1 km/h 29 km/h 87 % 0 mm 86 W/m2
10:01 7.3 °C 5.1 °C 1008.4 hPa WNW 14.5 km/h 20.9 km/h 86 % 0 mm 76 W/m2
10:06 7.3 °C 5.1 °C 1008.4 hPa WNW 16.1 km/h 25.7 km/h 86 % 0 mm 56 W/m2
10:11 7.3 °C 5.1 °C 1008.4 hPa West 17.7 km/h 35.4 km/h 86 % 0 mm 60 W/m2
10:16 7.4 °C 5.2 °C 1008.4 hPa West 16.1 km/h 29 km/h 86 % 0 mm 79 W/m2
10:21 7.4 °C 5.1 °C 1008.4 hPa WSW 17.7 km/h 30.6 km/h 85 % 0 mm 88 W/m2
10:26 7.4 °C 5.1 °C 1008.4 hPa West 19.3 km/h 32.2 km/h 85 % 0 mm 97 W/m2
10:31 7.3 °C 4.8 °C 1008.4 hPa West 20.9 km/h 30.6 km/h 84 % 0 mm 98 W/m2
10:36 7.3 °C 4.8 °C 1008 hPa West 17.7 km/h 25.7 km/h 84 % 0 mm 111 W/m2
10:42 7.4 °C 4.7 °C 1008 hPa West 25.7 km/h 38.6 km/h 83 % 0 mm 114 W/m2
10:47 7.4 °C 4.7 °C 1008 hPa West 19.3 km/h 32.2 km/h 83 % 0 mm 98 W/m2
10:52 7.4 °C 4.7 °C 1008 hPa West 22.5 km/h 43.5 km/h 83 % 0 mm 111 W/m2
10:57 7.4 °C 4.9 °C 1008 hPa West 19.3 km/h 25.7 km/h 84 % 0 mm 113 W/m2
11:02 7.4 °C 4.9 °C 1007.7 hPa West 17.7 km/h 29 km/h 84 % 0 mm 113 W/m2
11:07 7.4 °C 4.9 °C 1007.7 hPa West 20.9 km/h 38.6 km/h 84 % 0 mm 102 W/m2
11:12 7.4 °C 4.9 °C 1007.7 hPa West 27.4 km/h 38.6 km/h 84 % 0 mm 132 W/m2
11:17 7.5 °C 4.9 °C 1007.7 hPa West 17.7 km/h 30.6 km/h 84 % 0 mm 120 W/m2
11:22 7.5 °C 4.9 °C 1007.7 hPa West 22.5 km/h 35.4 km/h 84 % 0 mm 109 W/m2
11:27 7.5 °C 4.8 °C 1007.7 hPa West 27.4 km/h 41.8 km/h 83 % 0 mm 90 W/m2
11:32 7.4 °C 4.5 °C 1007.3 hPa West 29 km/h 40.2 km/h 82 % 0 mm 90 W/m2
11:37 7.3 °C 4.3 °C 1007.3 hPa West 25.7 km/h 38.6 km/h 81 % 0 mm 93 W/m2
11:42 7.3 °C 4.3 °C 1007.3 hPa West 29 km/h 49.9 km/h 81 % 0 mm 111 W/m2
11:47 7.3 °C 4.4 °C 1007.3 hPa West 32.2 km/h 54.7 km/h 82 % 0 mm 109 W/m2
11:52 7.3 °C 4.4 °C 1007.3 hPa West 27.4 km/h 38.6 km/h 82 % 0 mm 109 W/m2
11:57 7.3 °C 4.6 °C 1007.3 hPa West 20.9 km/h 33.8 km/h 83 % 0 mm 107 W/m2
12:02 7.3 °C 4.6 °C 1007 hPa West 24.1 km/h 40.2 km/h 83 % 0 mm 107 W/m2
12:07 7.4 °C 4.7 °C 1007 hPa West 25.7 km/h 45.1 km/h 83 % 0 mm 107 W/m2
12:12 7.5 °C 4.4 °C 1007 hPa WNW 25.7 km/h 41.8 km/h 81 % 0 mm 81 W/m2
12:22 7.6 °C 4.6 °C 1007 hPa West 30.6 km/h 46.7 km/h 81 % 0 mm 37 W/m2
12:27 7.3 °C 4.6 °C 1007 hPa West 29 km/h 43.5 km/h 83 % 0.25 mm 60 W/m2
12:32 6.9 °C 4.6 °C 1006.7 hPa West 27.4 km/h 41.8 km/h 85 % 0.25 mm 102 W/m2
12:37 6.8 °C 4.6 °C 1006.7 hPa West 22.5 km/h 33.8 km/h 86 % 0.25 mm 113 W/m2
12:42 6.9 °C 4.9 °C 1006.7 hPa WNW 19.3 km/h 30.6 km/h 87 % 0.25 mm 172 W/m2
12:47 7.1 °C 5.1 °C 1006.7 hPa WNW 16.1 km/h 29 km/h 87 % 0.25 mm 149 W/m2
12:52 7.2 °C 5.2 °C 1006.3 hPa WNW 25.7 km/h 48.3 km/h 87 % 0.25 mm 104 W/m2
12:57 7.2 °C 5.2 °C 1006.3 hPa WNW 20.9 km/h 37 km/h 87 % 0.25 mm 105 W/m2
13:02 7.2 °C 5.2 °C 1006.3 hPa West 25.7 km/h 46.7 km/h 87 % 0.25 mm 74 W/m2
13:07 7.1 °C 4.9 °C 1006.7 hPa West 27.4 km/h 40.2 km/h 86 % 0.25 mm 142 W/m2
13:12 7.1 °C 4.9 °C 1006.3 hPa West 27.4 km/h 40.2 km/h 86 % 0.25 mm 183 W/m2
13:17 7.2 °C 4.8 °C 1006.3 hPa West 29 km/h 43.5 km/h 85 % 0.25 mm 178 W/m2
13:22 7.4 °C 4.9 °C 1006.3 hPa West 27.4 km/h 51.5 km/h 84 % 0.25 mm 195 W/m2
13:32 7.6 °C 4.7 °C 1006.3 hPa West 32.2 km/h 45.1 km/h 82 % 0 mm 144 W/m2
13:37 7.6 °C 4.6 °C 1006 hPa West 30.6 km/h 45.1 km/h 81 % 0 mm 120 W/m2
13:42 7.5 °C 4.4 °C 1006.3 hPa WNW 27.4 km/h 46.7 km/h 81 % 0 mm 100 W/m2
13:47 7.4 °C 4.3 °C 1006.3 hPa WNW 27.4 km/h 41.8 km/h 81 % 0 mm 76 W/m2
13:52 7.2 °C 4.3 °C 1006.3 hPa West 24.1 km/h 35.4 km/h 82 % 0 mm 93 W/m2
13:57 7 °C 4.1 °C 1006.3 hPa West 29 km/h 43.5 km/h 82 % 0 mm 98 W/m2
14:02 6.8 °C 3.9 °C 1006.3 hPa WNW 24.1 km/h 37 km/h 82 % 0 mm 95 W/m2
14:07 6.8 °C 3.9 °C 1006.3 hPa WNW 27.4 km/h 48.3 km/h 82 % 0 mm 74 W/m2
14:12 6.8 °C 3.8 °C 1006.3 hPa WNW 29 km/h 38.6 km/h 81 % 0 mm 77 W/m2
14:17 6.8 °C 3.9 °C 1006.3 hPa West 24.1 km/h 40.2 km/h 82 % 0 mm 65 W/m2
14:22 6.8 °C 3.9 °C 1006.3 hPa West 22.5 km/h 37 km/h 82 % 0 mm 58 W/m2
14:27 6.7 °C 3.8 °C 1006.3 hPa West 20.9 km/h 33.8 km/h 82 % 0 mm 54 W/m2
14:32 6.6 °C 3.9 °C 1006 hPa WNW 25.7 km/h 38.6 km/h 83 % 0 mm 46 W/m2
14:37 6.6 °C 3.9 °C 1006 hPa West 24.1 km/h 41.8 km/h 83 % 0 mm 37 W/m2
14:42 6.5 °C 3.8 °C 1006 hPa West 24.1 km/h 48.3 km/h 83 % 0 mm 32 W/m2
14:47 6.4 °C 3.7 °C 1006 hPa WNW 22.5 km/h 33.8 km/h 83 % 0 mm 28 W/m2
14:52 6.4 °C 3.6 °C 1006.3 hPa WNW 19.3 km/h 30.6 km/h 82 % 0 mm 23 W/m2
14:57 6.4 °C 3.6 °C 1006.3 hPa West 19.3 km/h 29 km/h 82 % 0 mm 19 W/m2
15:02 6.4 °C 3.7 °C 1006.3 hPa West 25.7 km/h 37 km/h 83 % 0 mm 14 W/m2
15:07 6.1 °C 3.4 °C 1006.3 hPa West 24.1 km/h 41.8 km/h 83 % 0 mm 16 W/m2
15:12 5.9 °C 3.4 °C 1006.3 hPa West 22.5 km/h 37 km/h 84 % 0 mm 16 W/m2
15:17 5.7 °C 3.2 °C 1006.3 hPa West 22.5 km/h 35.4 km/h 84 % 0 mm 14 W/m2
15:23 5.6 °C 3.3 °C 1006.3 hPa WNW 16.1 km/h 29 km/h 85 % 0 mm 12 W/m2
15:28 5.6 °C 3.3 °C 1006.3 hPa WNW 17.7 km/h 24.1 km/h 85 % 0 mm 11 W/m2
15:33 5.5 °C 3.2 °C 1006.3 hPa WNW 20.9 km/h 30.6 km/h 85 % 0 mm 9 W/m2
15:38 5.5 °C 3.2 °C 1006 hPa WNW 20.9 km/h 41.8 km/h 85 % 0 mm 7 W/m2
15:43 5.6 °C 2.9 °C 1006.3 hPa WNW 22.5 km/h 37 km/h 83 % 0 mm 5 W/m2
15:48 5.6 °C 2.8 °C 1006.3 hPa WNW 20.9 km/h 38.6 km/h 82 % 0 mm 5 W/m2
15:53 5.5 °C 2.7 °C 1006 hPa WNW 22.5 km/h 35.4 km/h 82 % 0 mm 0 W/m2
15:58 5.4 °C 2.6 °C 1006 hPa West 22.5 km/h 38.6 km/h 82 % 0 mm 0 W/m2
16:03 5.4 °C 2.7 °C 1006 hPa West 22.5 km/h 37 km/h 83 % 0 mm 0 W/m2
16:08 5.4 °C 2.7 °C 1005.6 hPa West 22.5 km/h 33.8 km/h 83 % 0 mm 0 W/m2
16:13 5.4 °C 2.9 °C 1005.6 hPa West 22.5 km/h 33.8 km/h 84 % 0 mm 0 W/m2
16:18 5.4 °C 2.9 °C 1005.6 hPa West 20.9 km/h 35.4 km/h 84 % 0 mm 0 W/m2
16:24 5.5 °C 2.8 °C 1005.6 hPa West 19.3 km/h 30.6 km/h 83 % 0 mm 0 W/m2
16:29 5.5 °C 2.8 °C 1005.6 hPa West 24.1 km/h 40.2 km/h 83 % 0 mm 0 W/m2
16:34 5.6 °C 2.9 °C 1005.6 hPa West 25.7 km/h 40.2 km/h 83 % 0 mm 0 W/m2
16:39 5.6 °C 2.8 °C 1005.6 hPa West 27.4 km/h 38.6 km/h 82 % 0 mm 0 W/m2
16:44 5.6 °C 2.8 °C 1005.6 hPa West 20.9 km/h 37 km/h 82 % 0 mm 0 W/m2
16:49 5.6 °C 2.8 °C 1005.6 hPa West 25.7 km/h 38.6 km/h 82 % 0 mm 0 W/m2
16:54 5.6 °C 2.8 °C 1005.6 hPa WNW 27.4 km/h 45.1 km/h 82 % 0 mm 0 W/m2
16:59 5.6 °C 2.8 °C 1005.6 hPa WNW 24.1 km/h 38.6 km/h 82 % 0 mm 0 W/m2
17:04 5.6 °C 2.8 °C 1005.6 hPa WNW 32.2 km/h 48.3 km/h 82 % 0 mm 0 W/m2
17:09 5.6 °C 2.8 °C 1006.3 hPa WNW 30.6 km/h 45.1 km/h 82 % 0 mm 0 W/m2
17:14 5.2 °C 2.6 °C 1006 hPa WNW 20.9 km/h 33.8 km/h 83 % 0 mm 0 W/m2
17:19 4.9 °C 2.6 °C 1006 hPa WNW 22.5 km/h 35.4 km/h 85 % 0 mm 0 W/m2
17:24 4.7 °C 2.6 °C 1006 hPa WNW 19.3 km/h 32.2 km/h 86 % 0 mm 0 W/m2
17:29 4.4 °C 2.3 °C 1006 hPa NW 19.3 km/h 25.7 km/h 86 % 0 mm 0 W/m2
17:34 4.4 °C 2.3 °C 1006 hPa WNW 14.5 km/h 22.5 km/h 86 % 0 mm 0 W/m2
17:39 4.3 °C 2.3 °C 1006 hPa WNW 16.1 km/h 22.5 km/h 87 % 0 mm 0 W/m2
17:44 4.3 °C 2.3 °C 1006 hPa WNW 16.1 km/h 29 km/h 87 % 0 mm 0 W/m2
17:49 4.2 °C 2.2 °C 1005.6 hPa West 19.3 km/h 24.1 km/h 87 % 0 mm 0 W/m2
17:54 4.3 °C 2.3 °C 1006 hPa WNW 14.5 km/h 22.5 km/h 87 % 0 mm 0 W/m2
17:59 4.3 °C 2.3 °C 1006.3 hPa NW 14.5 km/h 24.1 km/h 87 % 0 mm 0 W/m2
18:04 4.4 °C 2.4 °C 1006.3 hPa WNW 25.7 km/h 49.9 km/h 87 % 0 mm 0 W/m2
18:09 4.5 °C 2.3 °C 1006.3 hPa WNW 24.1 km/h 45.1 km/h 86 % 0 mm 0 W/m2
18:14 4.5 °C 2.2 °C 1006.3 hPa WNW 16.1 km/h 24.1 km/h 85 % 0 mm 0 W/m2
18:19 4.4 °C 2.1 °C 1006.3 hPa WNW 16.1 km/h 30.6 km/h 85 % 0 mm 0 W/m2
18:24 4.4 °C 2.1 °C 1006 hPa WNW 19.3 km/h 29 km/h 85 % 0 mm 0 W/m2
18:29 4.4 °C 2.1 °C 1006 hPa WNW 25.7 km/h 38.6 km/h 85 % 0 mm 0 W/m2
18:34 4.4 °C 2.3 °C 1006 hPa West 20.9 km/h 33.8 km/h 86 % 0 mm 0 W/m2
18:39 4.4 °C 2.3 °C 1006 hPa WNW 19.3 km/h 33.8 km/h 86 % 0 mm 0 W/m2
18:44 4.3 °C 2 °C 1006.3 hPa WNW 20.9 km/h 30.6 km/h 85 % 0 mm 0 W/m2
18:49 4.3 °C 2 °C 1006.3 hPa WNW 22.5 km/h 33.8 km/h 85 % 0 mm 0 W/m2
18:54 4.3 °C 2 °C 1006.3 hPa West 27.4 km/h 38.6 km/h 85 % 0 mm 0 W/m2
18:59 4.3 °C 2 °C 1006.3 hPa WNW 22.5 km/h 35.4 km/h 85 % 0 mm 0 W/m2
19:04 4.2 °C 1.9 °C 1006.3 hPa WNW 19.3 km/h 29 km/h 85 % 0 mm 0 W/m2
19:09 4.2 °C 1.9 °C 1006 hPa WNW 20.9 km/h 35.4 km/h 85 % 0 mm 0 W/m2
19:14 4.2 °C 1.9 °C 1006 hPa West 22.5 km/h 35.4 km/h 85 % 0 mm 0 W/m2
19:19 4.2 °C 1.9 °C 1006 hPa West 19.3 km/h 30.6 km/h 85 % 0 mm 0 W/m2
19:24 4.2 °C 1.9 °C 1006 hPa WNW 20.9 km/h 30.6 km/h 85 % 0 mm 0 W/m2
19:29 4.4 °C 2.1 °C 1005.6 hPa West 22.5 km/h 32.2 km/h 85 % 0 mm 0 W/m2
19:34 4.6 °C 2.1 °C 1005.6 hPa WNW 24.1 km/h 33.8 km/h 84 % 0 mm 0 W/m2
19:39 4.7 °C 2.2 °C 1006 hPa West 19.3 km/h 32.2 km/h 84 % 0 mm 0 W/m2
19:45 4.8 °C 2.3 °C 1006 hPa West 17.7 km/h 25.7 km/h 84 % 0 mm 0 W/m2
19:50 4.7 °C 2.2 °C 1006 hPa West 17.7 km/h 24.1 km/h 84 % 0 mm 0 W/m2
19:55 4.6 °C 2.1 °C 1005.6 hPa West 17.7 km/h 25.7 km/h 84 % 0 mm 0 W/m2
19:56 4.6 °C 2.1 °C 1005.6 hPa West 16.1 km/h 25.7 km/h 84 % 0 mm 0 W/m2
20:01 4.5 °C 2.1 °C 1006 hPa West 17.7 km/h 30.6 km/h 84 % 0 mm 0 W/m2
20:06 4.4 °C 2.1 °C 1006 hPa West 16.1 km/h 25.7 km/h 85 % 0 mm 0 W/m2
20:11 4.4 °C 2.1 °C 1006 hPa West 19.3 km/h 30.6 km/h 85 % 0 mm 0 W/m2
20:16 4.3 °C 2.2 °C 1006.3 hPa West 17.7 km/h 25.7 km/h 86 % 0 mm 0 W/m2
20:21 4.3 °C 2.2 °C 1006.3 hPa West 17.7 km/h 29 km/h 86 % 0 mm 0 W/m2
20:26 4.3 °C 2.2 °C 1006.3 hPa West 14.5 km/h 25.7 km/h 86 % 0 mm 0 W/m2
20:31 4.2 °C 2.1 °C 1006.3 hPa West 9.7 km/h 14.5 km/h 86 % 0 mm 0 W/m2
20:36 4.1 °C 2.1 °C 1006.3 hPa West 9.7 km/h 12.9 km/h 87 % 0 mm 0 W/m2
20:41 4 °C 2.1 °C 1006.3 hPa West 8 km/h 12.9 km/h 87 % 0 mm 0 W/m2
20:46 3.9 °C 1.9 °C 1006.3 hPa WNW 9.7 km/h 19.3 km/h 87 % 0 mm 0 W/m2
20:51 3.9 °C 1.9 °C 1006 hPa West 9.7 km/h 14.5 km/h 87 % 0 mm 0 W/m2
20:56 3.8 °C 1.8 °C 1006.3 hPa West 9.7 km/h 16.1 km/h 87 % 0 mm 0 W/m2
21:01 3.8 °C 2 °C 1006 hPa West 8 km/h 11.3 km/h 88 % 0 mm 0 W/m2
21:06 3.8 °C 2 °C 1006 hPa WNW 11.3 km/h 22.5 km/h 88 % 0 mm 0 W/m2
21:11 4.1 °C 2.4 °C 1006 hPa WNW 20.9 km/h 29 km/h 89 % 0 mm 0 W/m2
21:16 4.3 °C 2.5 °C 1006 hPa WNW 16.1 km/h 24.1 km/h 88 % 0 mm 0 W/m2
21:21 4.4 °C 2.6 °C 1006 hPa WNW 19.3 km/h 32.2 km/h 88 % 0 mm 0 W/m2
21:26 4.5 °C 2.7 °C 1006 hPa WNW 16.1 km/h 29 km/h 88 % 0 mm 0 W/m2
21:31 4.6 °C 2.6 °C 1006 hPa WNW 19.3 km/h 30.6 km/h 87 % 0 mm 0 W/m2
21:36 4.7 °C 2.7 °C 1005.6 hPa WNW 19.3 km/h 25.7 km/h 87 % 0 mm 0 W/m2
21:41 4.7 °C 2.7 °C 1005.6 hPa WNW 17.7 km/h 33.8 km/h 87 % 0 mm 0 W/m2
21:47 4.8 °C 2.8 °C 1005.6 hPa WNW 16.1 km/h 24.1 km/h 87 % 0 mm 0 W/m2
21:52 4.7 °C 2.7 °C 1006 hPa WNW 17.7 km/h 30.6 km/h 87 % 0 mm 0 W/m2
21:57 4.8 °C 2.7 °C 1006 hPa WNW 19.3 km/h 30.6 km/h 86 % 0 mm 0 W/m2
22:02 4.8 °C 2.7 °C 1005.6 hPa WNW 19.3 km/h 32.2 km/h 86 % 0 mm 0 W/m2
22:07 4.8 °C 2.7 °C 1005.6 hPa WNW 17.7 km/h 30.6 km/h 86 % 0 mm 0 W/m2
22:12 4.8 °C 2.7 °C 1006 hPa WNW 16.1 km/h 25.7 km/h 86 % 0 mm 0 W/m2
22:17 4.7 °C 2.6 °C 1006 hPa WNW 16.1 km/h 29 km/h 86 % 0 mm 0 W/m2
22:22 4.6 °C 2.4 °C 1006 hPa WNW 17.7 km/h 30.6 km/h 86 % 0 mm 0 W/m2
22:27 4.6 °C 2.4 °C 1006 hPa WNW 14.5 km/h 20.9 km/h 86 % 0 mm 0 W/m2
22:32 4.4 °C 2.3 °C 1006 hPa WNW 12.9 km/h 16.1 km/h 86 % 0 mm 0 W/m2
22:37 4.4 °C 2.3 °C 1006 hPa WNW 14.5 km/h 25.7 km/h 86 % 0 mm 0 W/m2
22:42 4.3 °C 2.2 °C 1006 hPa WNW 14.5 km/h 20.9 km/h 86 % 0 mm 0 W/m2
22:47 4.3 °C 2.2 °C 1006 hPa WNW 12.9 km/h 17.7 km/h 86 % 0 mm 0 W/m2
22:52 4.3 °C 2.3 °C 1006 hPa WNW 12.9 km/h 19.3 km/h 87 % 0 mm 0 W/m2
22:57 4.3 °C 2.3 °C 1006 hPa WNW 14.5 km/h 20.9 km/h 87 % 0 mm 0 W/m2
23:02 4.3 °C 2.3 °C 1006 hPa WNW 12.9 km/h 16.1 km/h 87 % 0 mm 0 W/m2
23:03 4.3 °C 2.3 °C 1006 hPa WNW 12.9 km/h 19.3 km/h 87 % 0 mm 0 W/m2
23:08 4.3 °C 2.5 °C 1006 hPa WNW 11.3 km/h 16.1 km/h 88 % 0 mm 0 W/m2
23:14 4.2 °C 2.2 °C 1006.3 hPa West 8 km/h 12.9 km/h 87 % 0 mm 0 W/m2
23:18 4.1 °C 2.3 °C 1006.3 hPa West 9.7 km/h 17.7 km/h 88 % 0 mm 0 W/m2
23:24 4 °C 2.2 °C 1006.3 hPa West 14.5 km/h 22.5 km/h 88 % 0 mm 0 W/m2
23:29 4 °C 2.3 °C 1006.3 hPa WNW 12.9 km/h 20.9 km/h 89 % 0 mm 0 W/m2
23:34 4.1 °C 2.4 °C 1006.3 hPa WNW 14.5 km/h 19.3 km/h 89 % 0 mm 0 W/m2
23:39 4.1 °C 2.4 °C 1006.3 hPa WNW 12.9 km/h 19.3 km/h 89 % 0 mm 0 W/m2
23:44 4.1 °C 2.4 °C 1006.3 hPa WNW 11.3 km/h 16.1 km/h 89 % 0 mm 0 W/m2
23:49 4.1 °C 2.4 °C 1006.3 hPa NW 9.7 km/h 16.1 km/h 89 % 0 mm 0 W/m2
23:54 4 °C 2.3 °C 1006.3 hPa NW 9.7 km/h 16.1 km/h 89 % 0 mm 0 W/m2
23:59 4 °C 2.3 °C 1006.3 hPa WNW 9.7 km/h 12.9 km/h 89 % 0 mm 0 W/m2
Delerius-Weather
Compliments of Weather Underground - 2.25 mb

Data updates at regular intervals.